createdAt,value
2023-04-07T00:00:09.816Z,51.79
2023-04-07T00:05:06.750Z,52.00
2023-04-07T00:09:59.928Z,52.13
2023-04-07T00:14:55.537Z,52.82
2023-04-07T00:19:50.128Z,52.99
2023-04-07T00:24:43.590Z,53.48
2023-04-07T00:29:36.910Z,53.70
2023-04-07T00:34:30.499Z,54.70
2023-04-07T00:39:25.803Z,54.85
2023-04-07T00:44:19.099Z,54.93
2023-04-07T00:49:13.413Z,55.11
2023-04-07T00:54:07.516Z,55.17
2023-04-07T00:59:02.088Z,56.27
2023-04-07T01:04:02.954Z,56.00
2023-04-07T01:09:03.857Z,56.75
2023-04-07T01:14:01.637Z,56.68
2023-04-07T01:19:10.583Z,56.63
2023-04-07T01:24:24.234Z,57.16
2023-04-07T01:29:35.738Z,57.02
2023-04-07T01:34:31.774Z,57.94
2023-04-07T01:39:26.416Z,58.63
2023-04-07T01:44:21.119Z,58.67
2023-04-07T01:49:16.525Z,58.54
2023-04-07T01:54:10.855Z,58.74
2023-04-07T01:59:04.564Z,59.01
2023-04-07T02:04:07.922Z,59.10
2023-04-07T02:09:08.399Z,59.13
2023-04-07T02:14:04.407Z,57.89
2023-04-07T02:19:04.786Z,57.41
2023-04-07T02:23:58.293Z,57.29
2023-04-07T02:28:53.111Z,56.62
2023-04-07T02:33:46.351Z,56.29
2023-04-07T02:38:39.590Z,56.47
2023-04-07T02:43:32.838Z,56.26
2023-04-07T02:48:27.622Z,56.60
2023-04-07T02:53:20.887Z,56.38
2023-04-07T02:58:14.090Z,56.58
2023-04-07T03:03:10.362Z,56.90
2023-04-07T03:08:08.225Z,56.53
2023-04-07T03:13:01.564Z,56.39
2023-04-07T03:17:56.301Z,56.71
2023-04-07T03:22:50.060Z,56.46
2023-04-07T03:27:53.107Z,56.22
2023-04-07T03:32:47.087Z,56.67
2023-04-07T03:37:40.402Z,57.12
2023-04-07T03:42:39.215Z,56.34
2023-04-07T03:47:35.562Z,55.70
2023-04-07T03:52:31.250Z,55.35
2023-04-07T03:57:32.157Z,55.03
2023-04-07T04:02:25.488Z,55.03
2023-04-07T04:07:23.803Z,55.28
2023-04-07T04:12:19.992Z,55.54
2023-04-07T04:17:27.303Z,56.19
2023-04-07T04:22:20.808Z,56.24
2023-04-07T04:27:25.437Z,55.63
2023-04-07T04:32:25.608Z,56.76
2023-04-07T04:37:19.142Z,57.11
2023-04-07T04:42:13.535Z,56.51
2023-04-07T04:47:08.690Z,57.05
2023-04-07T04:52:06.566Z,57.20
2023-04-07T04:57:16.322Z,56.96
2023-04-07T05:02:26.690Z,56.11
2023-04-07T05:07:20.574Z,57.59
2023-04-07T05:12:14.139Z,57.75
2023-04-07T05:17:13.025Z,57.35
2023-04-07T05:22:07.639Z,56.12
2023-04-07T05:27:09.215Z,56.02
2023-04-07T05:32:03.994Z,56.51
2023-04-07T05:36:58.105Z,54.56
2023-04-07T05:41:53.606Z,54.00
2023-04-07T05:46:51.210Z,54.28
2023-04-07T05:51:48.752Z,53.34
2023-04-07T05:56:42.699Z,52.04
2023-04-07T06:01:37.640Z,53.63
2023-04-07T06:06:31.864Z,51.42
2023-04-07T06:11:31.091Z,51.69
2023-04-07T06:16:25.563Z,51.58
2023-04-07T06:21:20.326Z,51.96
2023-04-07T06:26:16.433Z,52.23
2023-04-07T06:31:12.855Z,51.25
2023-04-07T06:36:11.471Z,52.13
2023-04-07T06:41:06.703Z,53.31
2023-04-07T06:46:00.174Z,52.92
2023-04-07T06:50:53.895Z,51.54
2023-04-07T06:55:47.226Z,52.14
2023-04-07T07:00:41.885Z,51.08
2023-04-07T07:05:35.294Z,52.22
2023-04-07T07:10:28.821Z,52.62
2023-04-07T07:15:22.041Z,51.21
2023-04-07T07:20:17.451Z,50.57
2023-04-07T07:25:11.150Z,52.08
2023-04-07T07:30:07.624Z,50.16
2023-04-07T07:35:04.242Z,51.37
2023-04-07T07:39:58.862Z,52.04
2023-04-07T07:44:52.228Z,50.20
2023-04-07T07:49:45.463Z,50.17
2023-04-07T07:54:38.704Z,49.67
2023-04-07T07:59:44.425Z,49.80
2023-04-07T08:04:40.714Z,49.82
2023-04-07T08:09:33.984Z,50.74
2023-04-07T08:14:27.400Z,49.66
2023-04-07T08:19:22.209Z,50.75
2023-04-07T08:24:15.713Z,49.34
2023-04-07T08:29:08.995Z,49.03
2023-04-07T08:34:02.180Z,46.56
2023-04-07T08:38:58.782Z,46.08
2023-04-07T08:43:53.813Z,47.26
2023-04-07T08:48:52.606Z,41.53
2023-04-07T08:53:52.914Z,39.13
2023-04-07T08:58:48.480Z,38.65
2023-04-07T09:03:42.520Z,37.69
2023-04-07T09:08:35.818Z,38.46
2023-04-07T09:13:29.341Z,37.49
2023-04-07T09:18:24.162Z,38.11
2023-04-07T09:23:29.934Z,37.57
2023-04-07T09:28:23.446Z,38.44
2023-04-07T09:33:18.049Z,39.58
2023-04-07T09:38:12.605Z,41.01
2023-04-07T09:43:07.275Z,41.12
2023-04-07T09:48:00.665Z,41.85
2023-04-07T09:52:54.127Z,43.13
2023-04-07T09:57:50.569Z,42.14
2023-04-07T10:02:44.901Z,40.40
2023-04-07T10:07:38.554Z,40.55
2023-04-07T10:12:34.563Z,41.07
2023-04-07T10:17:29.695Z,41.02
2023-04-07T10:22:23.924Z,41.30
2023-04-07T10:27:21.051Z,40.04
2023-04-07T10:32:14.844Z,41.63
2023-04-07T10:37:14.465Z,41.67
2023-04-07T10:42:08.125Z,38.19
2023-04-07T10:47:10.963Z,37.26
2023-04-07T10:52:26.745Z,38.79
2023-04-07T10:57:21.355Z,38.71
2023-04-07T11:02:35.114Z,39.17
2023-04-07T11:07:48.975Z,40.55
2023-04-07T11:12:42.222Z,40.77
2023-04-07T11:17:35.740Z,38.34
2023-04-07T11:22:30.630Z,38.94
2023-04-07T11:27:25.722Z,37.92
2023-04-07T11:32:26.160Z,34.85
2023-04-07T11:37:24.556Z,37.49
2023-04-07T11:42:17.770Z,32.79
2023-04-07T11:47:14.512Z,31.23
2023-04-07T11:52:09.123Z,32.16
2023-04-07T11:57:05.342Z,31.22
2023-04-07T12:02:01.427Z,29.25
2023-04-07T12:06:56.193Z,28.27
2023-04-07T12:11:51.671Z,27.34
2023-04-07T12:16:45.425Z,28.91
2023-04-07T12:21:38.573Z,29.34
2023-04-07T12:26:33.189Z,29.86
2023-04-07T12:31:26.477Z,30.78
2023-04-07T12:36:19.577Z,31.71
2023-04-07T12:41:12.775Z,33.22
2023-04-07T12:46:07.394Z,33.60
2023-04-07T12:51:01.926Z,36.37
2023-04-07T12:55:55.169Z,38.50
2023-04-07T13:00:48.658Z,38.15
2023-04-07T13:05:43.207Z,39.24
2023-04-07T13:10:36.359Z,40.52
2023-04-07T13:15:29.623Z,40.45
2023-04-07T13:20:22.868Z,40.65
2023-04-07T13:25:17.406Z,40.66
2023-04-07T13:30:11.686Z,41.21
2023-04-07T13:35:05.557Z,41.86
2023-04-07T13:39:58.829Z,42.75
2023-04-07T13:44:54.593Z,42.62
2023-04-07T13:49:48.714Z,43.47
2023-04-07T13:54:42.153Z,43.55
2023-04-07T13:59:35.414Z,43.46
2023-04-07T14:04:30.182Z,44.11
2023-04-07T14:09:23.655Z,45.37
2023-04-07T14:14:17.849Z,43.86
2023-04-07T14:19:11.322Z,43.34
2023-04-07T14:24:05.899Z,43.77
2023-04-07T14:28:59.155Z,44.48
2023-04-07T14:33:52.878Z,45.02
2023-04-07T14:38:46.025Z,46.18
2023-04-07T14:43:41.346Z,46.93
2023-04-07T14:48:35.213Z,46.69
2023-04-07T14:53:31.070Z,46.36
2023-04-07T14:58:26.938Z,46.89
2023-04-07T15:03:21.718Z,46.51
2023-04-07T15:08:15.208Z,47.18
2023-04-07T15:13:08.326Z,47.28
2023-04-07T15:18:01.602Z,48.79
2023-04-07T15:22:57.421Z,49.52
2023-04-07T15:27:50.801Z,50.98
2023-04-07T15:32:44.410Z,51.64
2023-04-07T15:37:38.550Z,52.87
2023-04-07T15:42:35.704Z,52.53
2023-04-07T15:47:29.037Z,52.45
2023-04-07T15:52:22.231Z,54.30
2023-04-07T15:57:16.884Z,53.45
2023-04-07T16:02:14.034Z,53.89
2023-04-07T16:07:07.613Z,53.94
2023-04-07T16:12:00.992Z,54.18
2023-04-07T16:16:58.679Z,55.06
2023-04-07T16:21:54.181Z,56.29
2023-04-07T16:26:50.456Z,56.98
2023-04-07T16:31:44.687Z,57.73
2023-04-07T16:36:38.046Z,57.37
2023-04-07T16:41:32.596Z,57.67
2023-04-07T16:46:28.880Z,57.11
2023-04-07T16:51:22.663Z,57.53
2023-04-07T16:56:21.566Z,58.64
2023-04-07T17:01:20.112Z,58.04
2023-04-07T17:06:14.526Z,58.31
2023-04-07T17:11:09.108Z,58.98
2023-04-07T17:16:03.957Z,59.05
2023-04-07T17:21:09.459Z,59.79
2023-04-07T17:26:02.814Z,60.36
2023-04-07T17:31:12.072Z,60.38
2023-04-07T17:36:07.258Z,61.06
2023-04-07T17:41:01.943Z,60.86
2023-04-07T17:45:55.601Z,61.77
2023-04-07T17:50:51.330Z,61.89
2023-04-07T17:55:56.741Z,61.80
2023-04-07T18:00:56.860Z,61.70
2023-04-07T18:06:01.965Z,61.99
2023-04-07T18:11:07.223Z,62.38
2023-04-07T18:16:16.033Z,62.15
2023-04-07T18:21:21.166Z,62.48
2023-04-07T18:26:20.694Z,63.41
2023-04-07T18:31:15.438Z,63.59
2023-04-07T18:36:11.183Z,63.20
2023-04-07T18:41:05.112Z,63.25
2023-04-07T18:46:01.665Z,63.61
2023-04-07T18:50:57.869Z,64.56
2023-04-07T18:55:54.159Z,65.54
2023-04-07T19:00:50.841Z,66.47
2023-04-07T19:05:47.806Z,65.79
2023-04-07T19:10:42.317Z,65.60
2023-04-07T19:15:38.450Z,65.09
2023-04-07T19:20:33.769Z,65.68
2023-04-07T19:25:31.889Z,66.65
2023-04-07T19:30:25.666Z,67.18
2023-04-07T19:35:20.284Z,66.43
2023-04-07T19:40:19.176Z,67.20
2023-04-07T19:45:15.164Z,67.54
2023-04-07T19:50:11.272Z,67.02
2023-04-07T19:55:13.232Z,67.34
2023-04-07T20:00:08.648Z,66.42
2023-04-07T20:05:06.007Z,67.02
2023-04-07T20:10:00.115Z,67.55
2023-04-07T20:14:56.474Z,68.19
2023-04-07T20:19:50.749Z,67.64
2023-04-07T20:24:45.748Z,66.62
2023-04-07T20:29:46.433Z,67.42
2023-04-07T20:34:42.344Z,65.83
2023-04-07T20:39:35.739Z,65.18
2023-04-07T20:44:31.582Z,66.66
2023-04-07T20:49:25.133Z,67.16
2023-04-07T20:54:23.581Z,66.34
2023-04-07T20:59:17.129Z,66.91
2023-04-07T21:04:12.320Z,67.84
2023-04-07T21:09:10.528Z,67.70
2023-04-07T21:14:06.181Z,67.31
2023-04-07T21:18:59.639Z,66.61
2023-04-07T21:23:54.781Z,66.96
2023-04-07T21:28:49.190Z,66.42
2023-04-07T21:33:44.303Z,67.26
2023-04-07T21:38:41.160Z,68.44
2023-04-07T21:43:36.406Z,67.35
2023-04-07T21:48:30.487Z,68.40
2023-04-07T21:53:26.126Z,68.16
2023-04-07T21:58:19.957Z,69.16
2023-04-07T22:03:15.291Z,67.70
2023-04-07T22:08:08.989Z,68.59
2023-04-07T22:13:02.489Z,68.47
2023-04-07T22:17:56.465Z,68.82
2023-04-07T22:22:54.224Z,67.81
2023-04-07T22:27:47.648Z,66.67
2023-04-07T22:32:46.069Z,67.08
2023-04-07T22:37:39.621Z,65.73
2023-04-07T22:42:36.267Z,67.08
2023-04-07T22:47:29.936Z,67.03
2023-04-07T22:52:23.323Z,66.29
2023-04-07T22:57:16.825Z,68.07
2023-04-07T23:02:12.886Z,67.45
2023-04-07T23:07:06.422Z,67.03
2023-04-07T23:11:59.845Z,68.74
2023-04-07T23:16:54.678Z,66.93
2023-04-07T23:21:49.498Z,66.81
2023-04-07T23:26:42.778Z,66.33
2023-04-07T23:31:36.338Z,67.28
2023-04-07T23:36:29.736Z,67.42
2023-04-07T23:41:27.316Z,65.68
2023-04-07T23:46:21.118Z,66.69
2023-04-07T23:51:14.557Z,65.98
2023-04-07T23:56:08.400Z,65.48
